Tusculam, Pennsylvania
Current Conditions -  °F | °C
As of 12:53 AM on Friday 28 Nov 2014 (Local Time) from KRYT Reporting Station
Overcast Overcast  
Wind Chill: 32°   Ceiling: 3900
Heat Index: 32°   Visibility: 10mi
Dew Point: 21°   Wind: 3mph
Humidity: 64%   Direction: NA
Pressure: 30.13"   Gusts: NA
Location:  40.0414°N, 77.4967°W
Report Text: KRYT 280553Z AUTO VRB03KT 10SM OVC039 00/M06 A3013 RMK AO2 SLP215 60001 T00001061 10017 20000 50006 $
Loading
Personal Weather Stations






























Interactive Weather Map New forecast layout! Learn more

10-Day Weather Forecast

Advertisements
Track Severe Weather on mobile